sensor_id;sensor_type;location;lat;lon;timestamp;P1;durP1;ratioP1;P2;durP2;ratioP2
55222;SDS011;41090;48.632;12.428;2024-02-16T00:00:43;13.30;;;11.40;;
55222;SDS011;41090;48.632;12.428;2024-02-16T00:03:09;14.17;;;12.00;;
55222;SDS011;41090;48.632;12.428;2024-02-16T00:05:34;14.10;;;12.37;;
55222;SDS011;41090;48.632;12.428;2024-02-16T00:08:01;14.23;;;11.60;;
55222;SDS011;41090;48.632;12.428;2024-02-16T00:10:29;13.63;;;12.27;;
55222;SDS011;41090;48.632;12.428;2024-02-16T00:12:54;13.13;;;11.77;;
55222;SDS011;41090;48.632;12.428;2024-02-16T00:15:19;12.33;;;11.13;;
55222;SDS011;41090;48.632;12.428;2024-02-16T00:17:45;12.83;;;11.50;;
55222;SDS011;41090;48.632;12.428;2024-02-16T00:20:10;12.93;;;11.33;;
55222;SDS011;41090;48.632;12.428;2024-02-16T00:22:37;13.40;;;11.27;;
55222;SDS011;41090;48.632;12.428;2024-02-16T00:25:03;13.47;;;10.97;;
55222;SDS011;41090;48.632;12.428;2024-02-16T00:27:28;11.40;;;10.40;;
55222;SDS011;41090;48.632;12.428;2024-02-16T00:29:53;15.03;;;13.40;;
55222;SDS011;41090;48.632;12.428;2024-02-16T00:32:19;13.83;;;12.30;;
55222;SDS011;41090;48.632;12.428;2024-02-16T00:34:45;12.63;;;11.33;;
55222;SDS011;41090;48.632;12.428;2024-02-16T00:37:10;13.97;;;12.40;;
55222;SDS011;41090;48.632;12.428;2024-02-16T00:39:37;11.87;;;10.67;;
55222;SDS011;41090;48.632;12.428;2024-02-16T00:42:03;14.60;;;12.23;;
55222;SDS011;41090;48.632;12.428;2024-02-16T00:44:28;12.07;;;10.60;;
55222;SDS011;41090;48.632;12.428;2024-02-16T00:46:55;13.27;;;11.97;;
55222;SDS011;41090;48.632;12.428;2024-02-16T00:49:20;12.00;;;10.77;;
55222;SDS011;41090;48.632;12.428;2024-02-16T00:51:45;12.87;;;11.57;;
55222;SDS011;41090;48.632;12.428;2024-02-16T00:54:13;15.43;;;12.87;;
55222;SDS011;41090;48.632;12.428;2024-02-16T00:56:38;13.57;;;12.17;;
55222;SDS011;41090;48.632;12.428;2024-02-16T00:59:06;13.40;;;12.10;;
55222;SDS011;41090;48.632;12.428;2024-02-16T01:01:34;13.40;;;12.03;;
55222;SDS011;41090;48.632;12.428;2024-02-16T01:04:00;12.93;;;11.63;;
55222;SDS011;41090;48.632;12.428;2024-02-16T01:06:25;13.37;;;11.97;;
55222;SDS011;41090;48.632;12.428;2024-02-16T01:08:51;14.20;;;12.70;;
55222;SDS011;41090;48.632;12.428;2024-02-16T01:11:16;13.83;;;12.33;;
55222;SDS011;41090;48.632;12.428;2024-02-16T01:13:41;14.27;;;12.87;;
55222;SDS011;41090;48.632;12.428;2024-02-16T01:16:08;13.63;;;12.00;;
55222;SDS011;41090;48.632;12.428;2024-02-16T01:18:37;13.63;;;12.03;;
55222;SDS011;41090;48.632;12.428;2024-02-16T01:21:07;15.17;;;13.67;;
55222;SDS011;41090;48.632;12.428;2024-02-16T01:23:34;14.50;;;13.00;;
55222;SDS011;41090;48.632;12.428;2024-02-16T01:26:17;15.27;;;13.77;;
55222;SDS011;41090;48.632;12.428;2024-02-16T01:28:43;14.40;;;12.90;;
55222;SDS011;41090;48.632;12.428;2024-02-16T01:31:09;18.57;;;16.57;;
55222;SDS011;41090;48.632;12.428;2024-02-16T01:33:35;19.10;;;16.60;;
55222;SDS011;41090;48.632;12.428;2024-02-16T01:36:00;15.07;;;13.57;;
55222;SDS011;41090;48.632;12.428;2024-02-16T01:38:25;16.03;;;14.43;;
55222;SDS011;41090;48.632;12.428;2024-02-16T01:40:51;15.80;;;14.13;;
55222;SDS011;41090;48.632;12.428;2024-02-16T01:43:22;13.70;;;12.17;;
55222;SDS011;41090;48.632;12.428;2024-02-16T01:45:47;15.37;;;13.77;;
55222;SDS011;41090;48.632;12.428;2024-02-16T01:48:13;14.37;;;12.97;;
55222;SDS011;41090;48.632;12.428;2024-02-16T01:50:39;15.07;;;13.47;;
55222;SDS011;41090;48.632;12.428;2024-02-16T01:53:04;13.23;;;11.97;;
55222;SDS011;41090;48.632;12.428;2024-02-16T01:55:29;14.70;;;13.20;;
55222;SDS011;41090;48.632;12.428;2024-02-16T01:57:55;14.70;;;13.20;;
55222;SDS011;41090;48.632;12.428;2024-02-16T02:00:21;15.27;;;13.67;;
55222;SDS011;41090;48.632;12.428;2024-02-16T02:02:46;15.73;;;14.13;;
55222;SDS011;41090;48.632;12.428;2024-02-16T02:05:12;17.00;;;15.20;;
55222;SDS011;41090;48.632;12.428;2024-02-16T02:07:38;16.93;;;14.87;;
55222;SDS011;41090;48.632;12.428;2024-02-16T02:10:03;17.40;;;15.10;;
55222;SDS011;41090;48.632;12.428;2024-02-16T02:12:28;15.90;;;14.30;;
55222;SDS011;41090;48.632;12.428;2024-02-16T02:14:54;14.00;;;12.50;;
55222;SDS011;41090;48.632;12.428;2024-02-16T02:17:19;15.73;;;14.03;;
55222;SDS011;41090;48.632;12.428;2024-02-16T02:19:45;15.03;;;13.53;;
55222;SDS011;41090;48.632;12.428;2024-02-16T02:22:16;16.47;;;14.30;;
55222;SDS011;41090;48.632;12.428;2024-02-16T02:24:42;15.43;;;13.90;;
55222;SDS011;41090;48.632;12.428;2024-02-16T02:27:09;14.60;;;13.20;;
55222;SDS011;41090;48.632;12.428;2024-02-16T02:29:34;14.57;;;13.07;;
55222;SDS011;41090;48.632;12.428;2024-02-16T02:31:59;15.07;;;13.47;;
55222;SDS011;41090;48.632;12.428;2024-02-16T02:34:24;15.30;;;13.80;;
55222;SDS011;41090;48.632;12.428;2024-02-16T02:36:49;14.37;;;12.40;;
55222;SDS011;41090;48.632;12.428;2024-02-16T02:39:15;11.77;;;10.57;;
55222;SDS011;41090;48.632;12.428;2024-02-16T02:41:40;13.67;;;12.27;;
55222;SDS011;41090;48.632;12.428;2024-02-16T02:44:05;17.70;;;14.20;;
55222;SDS011;41090;48.632;12.428;2024-02-16T02:46:30;17.40;;;12.53;;
55222;SDS011;41090;48.632;12.428;2024-02-16T02:48:56;15.17;;;13.67;;
55222;SDS011;41090;48.632;12.428;2024-02-16T02:51:21;16.33;;;14.53;;
55222;SDS011;41090;48.632;12.428;2024-02-16T02:53:46;18.03;;;16.07;;
55222;SDS011;41090;48.632;12.428;2024-02-16T02:56:12;16.87;;;15.20;;
55222;SDS011;41090;48.632;12.428;2024-02-16T02:58:39;15.47;;;13.93;;
55222;SDS011;41090;48.632;12.428;2024-02-16T03:01:04;14.70;;;12.77;;
55222;SDS011;41090;48.632;12.428;2024-02-16T03:03:30;16.63;;;12.70;;
55222;SDS011;41090;48.632;12.428;2024-02-16T03:05:55;16.03;;;12.97;;
55222;SDS011;41090;48.632;12.428;2024-02-16T03:08:20;13.90;;;12.50;;
55222;SDS011;41090;48.632;12.428;2024-02-16T03:10:46;14.10;;;12.73;;
55222;SDS011;41090;48.632;12.428;2024-02-16T03:13:11;13.97;;;12.67;;
55222;SDS011;41090;48.632;12.428;2024-02-16T03:15:38;13.50;;;12.17;;
55222;SDS011;41090;48.632;12.428;2024-02-16T03:18:04;13.87;;;12.43;;
55222;SDS011;41090;48.632;12.428;2024-02-16T03:20:29;13.63;;;12.33;;
55222;SDS011;41090;48.632;12.428;2024-02-16T03:22:55;12.30;;;11.10;;
55222;SDS011;41090;48.632;12.428;2024-02-16T03:25:20;13.33;;;12.07;;
55222;SDS011;41090;48.632;12.428;2024-02-16T03:27:46;13.80;;;12.50;;
55222;SDS011;41090;48.632;12.428;2024-02-16T03:30:11;13.47;;;12.17;;
55222;SDS011;41090;48.632;12.428;2024-02-16T03:32:36;13.70;;;12.27;;
55222;SDS011;41090;48.632;12.428;2024-02-16T03:35:02;13.67;;;11.93;;
55222;SDS011;41090;48.632;12.428;2024-02-16T03:37:28;13.00;;;11.70;;
55222;SDS011;41090;48.632;12.428;2024-02-16T03:39:54;13.80;;;12.50;;
55222;SDS011;41090;48.632;12.428;2024-02-16T03:42:19;13.97;;;12.57;;
55222;SDS011;41090;48.632;12.428;2024-02-16T03:44:45;14.37;;;12.87;;
55222;SDS011;41090;48.632;12.428;2024-02-16T03:47:11;14.83;;;13.10;;
55222;SDS011;41090;48.632;12.428;2024-02-16T03:49:37;14.23;;;12.73;;
55222;SDS011;41090;48.632;12.428;2024-02-16T03:52:02;15.27;;;12.50;;
55222;SDS011;41090;48.632;12.428;2024-02-16T03:54:27;14.73;;;13.33;;
55222;SDS011;41090;48.632;12.428;2024-02-16T03:56:53;14.57;;;13.17;;
55222;SDS011;41090;48.632;12.428;2024-02-16T04:32:55;15.87;;;14.27;;
55222;SDS011;41090;48.632;12.428;2024-02-16T04:35:22;16.77;;;14.87;;
55222;SDS011;41090;48.632;12.428;2024-02-16T04:37:47;16.53;;;14.87;;
55222;SDS011;41090;48.632;12.428;2024-02-16T04:40:12;17.53;;;15.70;;
55222;SDS011;41090;48.632;12.428;2024-02-16T04:42:39;16.33;;;14.67;;
55222;SDS011;41090;48.632;12.428;2024-02-16T04:45:11;16.77;;;14.97;;
55222;SDS011;41090;48.632;12.428;2024-02-16T04:47:37;16.67;;;15.00;;
55222;SDS011;41090;48.632;12.428;2024-02-16T04:50:04;16.97;;;15.33;;
55222;SDS011;41090;48.632;12.428;2024-02-16T04:52:31;15.67;;;14.00;;
55222;SDS011;41090;48.632;12.428;2024-02-16T05:00:15;15.23;;;13.77;;
55222;SDS011;41090;48.632;12.428;2024-02-16T05:07:50;16.23;;;14.57;;
55222;SDS011;41090;48.632;12.428;2024-02-16T05:20:37;16.17;;;14.47;;
55222;SDS011;41090;48.632;12.428;2024-02-16T05:23:03;15.90;;;14.30;;
55222;SDS011;41090;48.632;12.428;2024-02-16T05:25:28;15.73;;;14.13;;
55222;SDS011;41090;48.632;12.428;2024-02-16T05:28:12;16.80;;;13.73;;
55222;SDS011;41090;48.632;12.428;2024-02-16T05:30:39;15.37;;;13.77;;
55222;SDS011;41090;48.632;12.428;2024-02-16T05:33:46;15.17;;;13.57;;
55222;SDS011;41090;48.632;12.428;2024-02-16T05:36:12;15.13;;;13.63;;
55222;SDS011;41090;48.632;12.428;2024-02-16T05:41:25;16.40;;;14.50;;
55222;SDS011;41090;48.632;12.428;2024-02-16T05:44:14;15.57;;;13.93;;
55222;SDS011;41090;48.632;12.428;2024-02-16T05:46:39;15.47;;;13.87;;
55222;SDS011;41090;48.632;12.428;2024-02-16T05:49:05;15.40;;;13.90;;
55222;SDS011;41090;48.632;12.428;2024-02-16T05:51:40;15.63;;;14.03;;
55222;SDS011;41090;48.632;12.428;2024-02-16T06:01:50;14.70;;;13.20;;
55222;SDS011;41090;48.632;12.428;2024-02-16T06:04:17;17.73;;;15.93;;
55222;SDS011;41090;48.632;12.428;2024-02-16T06:06:42;16.73;;;15.00;;
55222;SDS011;41090;48.632;12.428;2024-02-16T06:09:08;18.23;;;16.30;;
55222;SDS011;41090;48.632;12.428;2024-02-16T06:11:36;17.83;;;15.43;;
55222;SDS011;41090;48.632;12.428;2024-02-16T06:14:01;16.93;;;15.17;;
55222;SDS011;41090;48.632;12.428;2024-02-16T06:16:27;17.63;;;15.30;;
55222;SDS011;41090;48.632;12.428;2024-02-16T06:18:52;15.93;;;14.33;;
55222;SDS011;41090;48.632;12.428;2024-02-16T06:21:18;18.37;;;13.27;;
55222;SDS011;41090;48.632;12.428;2024-02-16T06:23:43;15.70;;;13.83;;
55222;SDS011;41090;48.632;12.428;2024-02-16T06:26:08;16.47;;;14.70;;
55222;SDS011;41090;48.632;12.428;2024-02-16T06:28:36;15.27;;;13.77;;
55222;SDS011;41090;48.632;12.428;2024-02-16T06:31:02;16.10;;;14.23;;
55222;SDS011;41090;48.632;12.428;2024-02-16T06:33:27;16.60;;;14.57;;
55222;SDS011;41090;48.632;12.428;2024-02-16T06:35:52;16.30;;;14.70;;
55222;SDS011;41090;48.632;12.428;2024-02-16T06:38:18;16.07;;;14.47;;
55222;SDS011;41090;48.632;12.428;2024-02-16T06:40:48;16.73;;;14.53;;
55222;SDS011;41090;48.632;12.428;2024-02-16T06:43:14;16.47;;;13.80;;
55222;SDS011;41090;48.632;12.428;2024-02-16T06:45:39;16.20;;;13.73;;
55222;SDS011;41090;48.632;12.428;2024-02-16T06:48:06;17.07;;;13.90;;
55222;SDS011;41090;48.632;12.428;2024-02-16T06:50:31;15.20;;;13.70;;
55222;SDS011;41090;48.632;12.428;2024-02-16T06:52:56;16.03;;;14.40;;
55222;SDS011;41090;48.632;12.428;2024-02-16T06:55:22;15.60;;;14.10;;
55222;SDS011;41090;48.632;12.428;2024-02-16T06:57:48;14.13;;;12.83;;
55222;SDS011;41090;48.632;12.428;2024-02-16T07:00:13;15.50;;;13.40;;
55222;SDS011;41090;48.632;12.428;2024-02-16T07:02:40;14.17;;;12.77;;
55222;SDS011;41090;48.632;12.428;2024-02-16T07:05:06;15.57;;;13.70;;
55222;SDS011;41090;48.632;12.428;2024-02-16T07:07:31;13.90;;;12.60;;
55222;SDS011;41090;48.632;12.428;2024-02-16T07:10:00;13.60;;;12.30;;
55222;SDS011;41090;48.632;12.428;2024-02-16T07:12:26;14.47;;;12.93;;
55222;SDS011;41090;48.632;12.428;2024-02-16T07:14:51;14.17;;;12.77;;
55222;SDS011;41090;48.632;12.428;2024-02-16T07:17:16;13.80;;;12.47;;
55222;SDS011;41090;48.632;12.428;2024-02-16T07:19:42;14.70;;;13.07;;
55222;SDS011;41090;48.632;12.428;2024-02-16T07:22:07;14.40;;;13.00;;
55222;SDS011;41090;48.632;12.428;2024-02-16T07:24:32;20.17;;;18.10;;
55222;SDS011;41090;48.632;12.428;2024-02-16T07:26:59;22.30;;;20.10;;
55222;SDS011;41090;48.632;12.428;2024-02-16T07:29:24;18.60;;;16.60;;
55222;SDS011;41090;48.632;12.428;2024-02-16T07:31:49;18.77;;;17.07;;
55222;SDS011;41090;48.632;12.428;2024-02-16T07:34:17;16.87;;;15.17;;
55222;SDS011;41090;48.632;12.428;2024-02-16T07:36:42;15.97;;;14.47;;
55222;SDS011;41090;48.632;12.428;2024-02-16T07:39:08;15.80;;;14.30;;
55222;SDS011;41090;48.632;12.428;2024-02-16T07:41:37;14.73;;;13.23;;
55222;SDS011;41090;48.632;12.428;2024-02-16T07:44:02;15.07;;;13.73;;
55222;SDS011;41090;48.632;12.428;2024-02-16T07:46:28;14.80;;;13.37;;
55222;SDS011;41090;48.632;12.428;2024-02-16T07:48:53;15.00;;;13.53;;
55222;SDS011;41090;48.632;12.428;2024-02-16T07:51:18;14.60;;;13.10;;
55222;SDS011;41090;48.632;12.428;2024-02-16T07:53:43;14.93;;;13.43;;
55222;SDS011;41090;48.632;12.428;2024-02-16T07:56:11;15.30;;;13.70;;
55222;SDS011;41090;48.632;12.428;2024-02-16T07:58:36;14.37;;;12.97;;
55222;SDS011;41090;48.632;12.428;2024-02-16T08:01:01;14.87;;;12.77;;
55222;SDS011;41090;48.632;12.428;2024-02-16T08:03:27;14.57;;;12.83;;
55222;SDS011;41090;48.632;12.428;2024-02-16T08:05:52;15.53;;;13.93;;
55222;SDS011;41090;48.632;12.428;2024-02-16T08:08:18;15.77;;;14.17;;
55222;SDS011;41090;48.632;12.428;2024-02-16T08:10:43;15.10;;;13.63;;
55222;SDS011;41090;48.632;12.428;2024-02-16T08:13:08;17.07;;;15.27;;
55222;SDS011;41090;48.632;12.428;2024-02-16T08:15:33;14.87;;;13.57;;
55222;SDS011;41090;48.632;12.428;2024-02-16T08:17:59;16.87;;;15.07;;
55222;SDS011;41090;48.632;12.428;2024-02-16T08:20:24;16.73;;;14.83;;
55222;SDS011;41090;48.632;12.428;2024-02-16T08:22:49;16.30;;;14.70;;
55222;SDS011;41090;48.632;12.428;2024-02-16T08:25:14;16.43;;;14.93;;
55222;SDS011;41090;48.632;12.428;2024-02-16T08:27:40;15.83;;;14.33;;
55222;SDS011;41090;48.632;12.428;2024-02-16T08:30:05;16.37;;;14.90;;
55222;SDS011;41090;48.632;12.428;2024-02-16T08:32:31;16.43;;;14.93;;
55222;SDS011;41090;48.632;12.428;2024-02-16T08:34:56;15.10;;;13.60;;
55222;SDS011;41090;48.632;12.428;2024-02-16T08:37:23;15.23;;;13.73;;
55222;SDS011;41090;48.632;12.428;2024-02-16T08:39:48;15.17;;;13.70;;
55222;SDS011;41090;48.632;12.428;2024-02-16T08:42:14;14.67;;;13.23;;
55222;SDS011;41090;48.632;12.428;2024-02-16T08:44:39;15.80;;;13.13;;
55222;SDS011;41090;48.632;12.428;2024-02-16T08:47:05;14.60;;;13.17;;
55222;SDS011;41090;48.632;12.428;2024-02-16T08:49:31;14.97;;;13.47;;
55222;SDS011;41090;48.632;12.428;2024-02-16T08:51:56;14.10;;;12.70;;
55222;SDS011;41090;48.632;12.428;2024-02-16T08:54:21;16.43;;;14.17;;
55222;SDS011;41090;48.632;12.428;2024-02-16T08:56:46;15.07;;;13.27;;
55222;SDS011;41090;48.632;12.428;2024-02-16T08:59:13;14.17;;;12.63;;
55222;SDS011;41090;48.632;12.428;2024-02-16T09:01:38;15.57;;;13.93;;
55222;SDS011;41090;48.632;12.428;2024-02-16T09:04:06;14.73;;;13.43;;
55222;SDS011;41090;48.632;12.428;2024-02-16T09:06:32;14.47;;;12.97;;
55222;SDS011;41090;48.632;12.428;2024-02-16T09:08:59;14.43;;;13.07;;
55222;SDS011;41090;48.632;12.428;2024-02-16T09:11:24;13.27;;;12.07;;
55222;SDS011;41090;48.632;12.428;2024-02-16T09:13:50;14.03;;;12.73;;
55222;SDS011;41090;48.632;12.428;2024-02-16T09:16:15;14.03;;;12.70;;
55222;SDS011;41090;48.632;12.428;2024-02-16T09:18:41;13.93;;;12.53;;
55222;SDS011;41090;48.632;12.428;2024-02-16T09:21:06;13.67;;;12.40;;
55222;SDS011;41090;48.632;12.428;2024-02-16T09:23:31;13.93;;;12.17;;
55222;SDS011;41090;48.632;12.428;2024-02-16T09:25:57;13.93;;;12.63;;
55222;SDS011;41090;48.632;12.428;2024-02-16T09:28:22;12.77;;;11.60;;
55222;SDS011;41090;48.632;12.428;2024-02-16T09:30:47;13.47;;;12.10;;
55222;SDS011;41090;48.632;12.428;2024-02-16T09:33:13;12.93;;;11.80;;
55222;SDS011;41090;48.632;12.428;2024-02-16T09:35:39;11.90;;;10.90;;
55222;SDS011;41090;48.632;12.428;2024-02-16T09:38:04;12.87;;;11.70;;
55222;SDS011;41090;48.632;12.428;2024-02-16T09:40:29;12.47;;;11.37;;
55222;SDS011;41090;48.632;12.428;2024-02-16T09:42:54;11.97;;;10.87;;
55222;SDS011;41090;48.632;12.428;2024-02-16T09:45:20;11.90;;;10.80;;
55222;SDS011;41090;48.632;12.428;2024-02-16T09:47:45;11.07;;;10.07;;
55222;SDS011;41090;48.632;12.428;2024-02-16T09:50:14;11.80;;;10.80;;
55222;SDS011;41090;48.632;12.428;2024-02-16T09:52:40;11.65;;;10.65;;
55222;SDS011;41090;48.632;12.428;2024-02-16T09:55:15;12.05;;;10.80;;
55222;SDS011;41090;48.632;12.428;2024-02-16T09:57:40;11.93;;;10.82;;
55222;SDS011;41090;48.632;12.428;2024-02-16T10:00:06;13.75;;;12.55;;
55222;SDS011;41090;48.632;12.428;2024-02-16T10:02:44;13.95;;;12.68;;
55222;SDS011;41090;48.632;12.428;2024-02-16T10:05:16;13.90;;;12.57;;
55222;SDS011;41090;48.632;12.428;2024-02-16T10:07:42;13.10;;;11.82;;
55222;SDS011;41090;48.632;12.428;2024-02-16T10:12:47;10.18;;;9.27;;
55222;SDS011;41090;48.632;12.428;2024-02-16T10:15:18;10.55;;;9.57;;
55222;SDS011;41090;48.632;12.428;2024-02-16T10:17:44;10.85;;;9.80;;
55222;SDS011;41090;48.632;12.428;2024-02-16T10:20:09;10.38;;;9.38;;
55222;SDS011;41090;48.632;12.428;2024-02-16T10:22:36;11.13;;;9.45;;
55222;SDS011;41090;48.632;12.428;2024-02-16T10:25:08;9.93;;;8.73;;
55222;SDS011;41090;48.632;12.428;2024-02-16T10:27:36;9.40;;;8.60;;
55222;SDS011;41090;48.632;12.428;2024-02-16T10:30:02;9.40;;;8.60;;
55222;SDS011;41090;48.632;12.428;2024-02-16T10:32:27;8.30;;;7.55;;
55222;SDS011;41090;48.632;12.428;2024-02-16T10:34:56;10.45;;;9.55;;
55222;SDS011;41090;48.632;12.428;2024-02-16T10:37:25;8.80;;;8.02;;
55222;SDS011;41090;48.632;12.428;2024-02-16T10:39:50;8.05;;;7.45;;
55222;SDS011;41090;48.632;12.428;2024-02-16T10:42:16;8.77;;;7.88;;
55222;SDS011;41090;48.632;12.428;2024-02-16T10:44:42;8.05;;;7.18;;
55222;SDS011;41090;48.632;12.428;2024-02-16T10:47:08;7.20;;;6.68;;
55222;SDS011;41090;48.632;12.428;2024-02-16T10:49:33;7.00;;;6.50;;
55222;SDS011;41090;48.632;12.428;2024-02-16T10:51:59;7.53;;;6.90;;
55222;SDS011;41090;48.632;12.428;2024-02-16T10:54:32;7.80;;;7.07;;
55222;SDS011;41090;48.632;12.428;2024-02-16T10:56:58;6.97;;;6.45;;
55222;SDS011;41090;48.632;12.428;2024-02-16T10:59:24;7.07;;;6.50;;
55222;SDS011;41090;48.632;12.428;2024-02-16T11:01:58;7.35;;;6.68;;
55222;SDS011;41090;48.632;12.428;2024-02-16T11:04:24;7.00;;;6.40;;
55222;SDS011;41090;48.632;12.428;2024-02-16T11:06:53;6.93;;;6.43;;
55222;SDS011;41090;48.632;12.428;2024-02-16T11:09:26;7.07;;;6.38;;
55222;SDS011;41090;48.632;12.428;2024-02-16T11:11:52;6.93;;;6.28;;
55222;SDS011;41090;48.632;12.428;2024-02-16T11:14:18;7.13;;;6.53;;
55222;SDS011;41090;48.632;12.428;2024-02-16T11:16:44;7.03;;;6.50;;
55222;SDS011;41090;48.632;12.428;2024-02-16T11:19:09;7.80;;;6.63;;
55222;SDS011;41090;48.632;12.428;2024-02-16T11:21:35;7.00;;;6.40;;
55222;SDS011;41090;48.632;12.428;2024-02-16T11:24:06;9.40;;;8.60;;
55222;SDS011;41090;48.632;12.428;2024-02-16T11:26:32;8.60;;;7.88;;
55222;SDS011;41090;48.632;12.428;2024-02-16T11:29:09;7.13;;;6.43;;
55222;SDS011;41090;48.632;12.428;2024-02-16T11:31:35;7.07;;;6.43;;
55222;SDS011;41090;48.632;12.428;2024-02-16T11:34:00;7.00;;;6.40;;
55222;SDS011;41090;48.632;12.428;2024-02-16T11:36:25;7.13;;;6.53;;
55222;SDS011;41090;48.632;12.428;2024-02-16T11:38:52;7.43;;;6.82;;
55222;SDS011;41090;48.632;12.428;2024-02-16T11:41:17;7.50;;;6.90;;
55222;SDS011;41090;48.632;12.428;2024-02-16T11:43:42;7.28;;;6.68;;
55222;SDS011;41090;48.632;12.428;2024-02-16T11:46:11;7.88;;;7.07;;
55222;SDS011;41090;48.632;12.428;2024-02-16T11:48:38;7.68;;;7.00;;
55222;SDS011;41090;48.632;12.428;2024-02-16T11:51:03;7.80;;;7.03;;
55222;SDS011;41090;48.632;12.428;2024-02-16T11:53:31;7.22;;;6.63;;
55222;SDS011;41090;48.632;12.428;2024-02-16T11:55:57;7.65;;;6.88;;
55222;SDS011;41090;48.632;12.428;2024-02-16T11:58:22;7.47;;;6.78;;
55222;SDS011;41090;48.632;12.428;2024-02-16T12:00:48;6.88;;;6.28;;
55222;SDS011;41090;48.632;12.428;2024-02-16T12:03:33;7.93;;;7.22;;
55222;SDS011;41090;48.632;12.428;2024-02-16T12:05:59;6.75;;;6.22;;
55222;SDS011;41090;48.632;12.428;2024-02-16T12:08:31;7.68;;;6.88;;
55222;SDS011;41090;48.632;12.428;2024-02-16T12:10:56;7.53;;;6.63;;
55222;SDS011;41090;48.632;12.428;2024-02-16T12:13:22;7.30;;;6.70;;
55222;SDS011;41090;48.632;12.428;2024-02-16T12:15:48;7.38;;;6.78;;
55222;SDS011;41090;48.632;12.428;2024-02-16T12:18:26;6.78;;;6.18;;
55222;SDS011;41090;48.632;12.428;2024-02-16T12:23:22;7.30;;;6.60;;
55222;SDS011;41090;48.632;12.428;2024-02-16T12:25:48;7.72;;;6.35;;
55222;SDS011;41090;48.632;12.428;2024-02-16T12:28:13;6.90;;;6.20;;
55222;SDS011;41090;48.632;12.428;2024-02-16T12:30:38;7.22;;;6.53;;
55222;SDS011;41090;48.632;12.428;2024-02-16T12:33:05;7.40;;;6.72;;
55222;SDS011;41090;48.632;12.428;2024-02-16T12:35:30;6.72;;;5.95;;
55222;SDS011;41090;48.632;12.428;2024-02-16T12:37:55;7.22;;;6.53;;
55222;SDS011;41090;48.632;12.428;2024-02-16T12:40:24;7.13;;;6.47;;
55222;SDS011;41090;48.632;12.428;2024-02-16T12:42:50;7.47;;;6.68;;
55222;SDS011;41090;48.632;12.428;2024-02-16T12:45:15;6.43;;;5.82;;
55222;SDS011;41090;48.632;12.428;2024-02-16T12:47:41;7.22;;;5.90;;
55222;SDS011;41090;48.632;12.428;2024-02-16T12:50:07;7.47;;;6.68;;
55222;SDS011;41090;48.632;12.428;2024-02-16T12:52:32;7.03;;;6.32;;
55222;SDS011;41090;48.632;12.428;2024-02-16T12:54:59;6.88;;;6.20;;
55222;SDS011;41090;48.632;12.428;2024-02-16T12:57:24;6.68;;;6.18;;
55222;SDS011;41090;48.632;12.428;2024-02-16T12:59:49;6.72;;;6.05;;
55222;SDS011;41090;48.632;12.428;2024-02-16T13:02:15;7.15;;;6.45;;
55222;SDS011;41090;48.632;12.428;2024-02-16T13:04:40;6.32;;;5.82;;
55222;SDS011;41090;48.632;12.428;2024-02-16T13:07:05;6.88;;;6.10;;
55222;SDS011;41090;48.632;12.428;2024-02-16T13:09:31;6.50;;;5.90;;
55222;SDS011;41090;48.632;12.428;2024-02-16T13:11:56;6.72;;;6.05;;
55222;SDS011;41090;48.632;12.428;2024-02-16T13:14:21;6.40;;;5.90;;
55222;SDS011;41090;48.632;12.428;2024-02-16T13:16:47;6.60;;;6.10;;
55222;SDS011;41090;48.632;12.428;2024-02-16T13:19:15;6.85;;;6.25;;
55222;SDS011;41090;48.632;12.428;2024-02-16T13:21:43;6.47;;;5.88;;
55222;SDS011;41090;48.632;12.428;2024-02-16T13:24:09;6.80;;;6.20;;
55222;SDS011;41090;48.632;12.428;2024-02-16T13:26:34;6.85;;;6.35;;
55222;SDS011;41090;48.632;12.428;2024-02-16T13:28:59;7.93;;;6.37;;
55222;SDS011;41090;48.632;12.428;2024-02-16T13:31:25;7.35;;;6.75;;
55222;SDS011;41090;48.632;12.428;2024-02-16T13:33:53;7.00;;;6.25;;
55222;SDS011;41090;48.632;12.428;2024-02-16T13:36:19;6.60;;;6.03;;
55222;SDS011;41090;48.632;12.428;2024-02-16T13:38:44;5.97;;;5.47;;
55222;SDS011;41090;48.632;12.428;2024-02-16T13:41:12;6.80;;;6.10;;
55222;SDS011;41090;48.632;12.428;2024-02-16T13:43:37;7.05;;;6.40;;
55222;SDS011;41090;48.632;12.428;2024-02-16T13:46:03;7.38;;;6.53;;
55222;SDS011;41090;48.632;12.428;2024-02-16T13:48:28;6.20;;;5.70;;
55222;SDS011;41090;48.632;12.428;2024-02-16T13:50:55;6.43;;;5.82;;
55222;SDS011;41090;48.632;12.428;2024-02-16T13:53:23;7.85;;;6.53;;
55222;SDS011;41090;48.632;12.428;2024-02-16T13:55:49;6.50;;;6.00;;
55222;SDS011;41090;48.632;12.428;2024-02-16T13:58:14;7.18;;;6.50;;
55222;SDS011;41090;48.632;12.428;2024-02-16T14:00:39;7.72;;;6.78;;
55222;SDS011;41090;48.632;12.428;2024-02-16T14:03:09;6.45;;;5.93;;
55222;SDS011;41090;48.632;12.428;2024-02-16T14:05:38;7.20;;;6.60;;
55222;SDS011;41090;48.632;12.428;2024-02-16T14:08:04;7.68;;;6.70;;
55222;SDS011;41090;48.632;12.428;2024-02-16T14:10:30;6.90;;;6.28;;
55222;SDS011;41090;48.632;12.428;2024-02-16T14:12:55;6.68;;;6.07;;
55222;SDS011;41090;48.632;12.428;2024-02-16T14:15:21;7.90;;;7.13;;
55222;SDS011;41090;48.632;12.428;2024-02-16T14:17:47;7.45;;;6.68;;
55222;SDS011;41090;48.632;12.428;2024-02-16T14:20:12;6.90;;;6.30;;
55222;SDS011;41090;48.632;12.428;2024-02-16T14:22:37;8.55;;;7.10;;
55222;SDS011;41090;48.632;12.428;2024-02-16T14:25:03;7.55;;;6.85;;
55222;SDS011;41090;48.632;12.428;2024-02-16T14:27:29;7.10;;;6.40;;
55222;SDS011;41090;48.632;12.428;2024-02-16T14:29:54;8.10;;;7.30;;
55222;SDS011;41090;48.632;12.428;2024-02-16T14:32:20;7.60;;;6.82;;
55222;SDS011;41090;48.632;12.428;2024-02-16T14:34:45;8.00;;;7.30;;
55222;SDS011;41090;48.632;12.428;2024-02-16T14:37:11;7.80;;;7.10;;
55222;SDS011;41090;48.632;12.428;2024-02-16T14:39:36;8.03;;;7.07;;
55222;SDS011;41090;48.632;12.428;2024-02-16T14:42:01;8.00;;;7.30;;
55222;SDS011;41090;48.632;12.428;2024-02-16T14:44:27;7.93;;;7.23;;
55222;SDS011;41090;48.632;12.428;2024-02-16T14:46:53;7.30;;;6.60;;
55222;SDS011;41090;48.632;12.428;2024-02-16T14:49:18;7.50;;;6.70;;
55222;SDS011;41090;48.632;12.428;2024-02-16T14:51:49;8.07;;;7.37;;
55222;SDS011;41090;48.632;12.428;2024-02-16T14:54:14;9.53;;;7.87;;
55222;SDS011;41090;48.632;12.428;2024-02-16T14:56:39;8.13;;;7.37;;
55222;SDS011;41090;48.632;12.428;2024-02-16T14:59:05;9.23;;;7.27;;
55222;SDS011;41090;48.632;12.428;2024-02-16T15:01:30;7.97;;;7.23;;
55222;SDS011;41090;48.632;12.428;2024-02-16T15:03:56;8.50;;;7.60;;
55222;SDS011;41090;48.632;12.428;2024-02-16T15:06:21;7.87;;;7.00;;
55222;SDS011;41090;48.632;12.428;2024-02-16T15:08:46;8.50;;;7.70;;
55222;SDS011;41090;48.632;12.428;2024-02-16T15:11:12;8.57;;;7.77;;
55222;SDS011;41090;48.632;12.428;2024-02-16T15:13:37;8.70;;;7.80;;
55222;SDS011;41090;48.632;12.428;2024-02-16T15:16:03;9.07;;;7.43;;
55222;SDS011;41090;48.632;12.428;2024-02-16T15:18:28;8.63;;;7.67;;
55222;SDS011;41090;48.632;12.428;2024-02-16T15:20:54;9.47;;;7.87;;
55222;SDS011;41090;48.632;12.428;2024-02-16T15:23:19;8.00;;;7.20;;